Time;durP1;ratioP1;P1;durP2;ratioP2;P2;SDS_P1;SDS_P2;PMS_P1;PMS_P2;Temp;Humidity;BMP_temperature;BMP_pressure;BME280_temperature;BME280_humidity;BME280_pressure;Samples;Min_cycle;Max_cycle;Signal;HPM_P1;HPM_P2
2024/04/10 00:00:59;;;;;;;23.30;13.73;;;18.10;79.00;;;;;;5331689;26;110601;-51
2024/04/10 00:03:25;;;;;;;22.15;14.27;;;18.10;79.00;;;;;;5330651;26;112875;-51
2024/04/10 00:05:58;;;;;;;21.70;13.75;;;18.10;79.20;;;;;;5328397;26;111796;-51
2024/04/10 00:08:25;;;;;;;21.73;13.93;;;18.30;78.70;;;;;;5331547;26;110545;-51
2024/04/10 00:10:51;;;;;;;22.38;12.88;;;18.10;78.70;;;;;;5329427;26;110655;-51
2024/04/10 00:13:17;;;;;;;19.40;13.32;;;18.10;79.10;;;;;;5330504;26;112367;-51
2024/04/10 00:15:43;;;;;;;25.90;12.98;;;18.10;78.70;;;;;;5330297;26;110658;-51
2024/04/10 00:18:09;;;;;;;21.83;12.18;;;18.10;79.00;;;;;;5331454;26;111331;-52
2024/04/10 00:20:36;;;;;;;17.77;12.70;;;18.10;78.40;;;;;;5331505;26;110568;-51
2024/04/10 00:23:05;;;;;;;23.17;12.10;;;18.10;78.50;;;;;;5330004;26;112635;-51
2024/04/10 00:25:34;;;;;;;20.17;13.45;;;17.90;78.70;;;;;;5328520;26;112482;-52
2024/04/10 00:28:00;;;;;;;18.08;11.27;;;18.00;78.50;;;;;;5331084;26;110399;-51
2024/04/10 00:30:26;;;;;;;21.33;11.45;;;18.00;78.70;;;;;;5331465;26;110822;-52
2024/04/10 00:32:52;;;;;;;19.88;11.90;;;18.00;78.60;;;;;;5330036;26;112328;-51
2024/04/10 00:35:18;;;;;;;19.80;11.15;;;17.90;78.70;;;;;;5329996;26;111443;-52
2024/04/10 00:37:43;;;;;;;21.98;11.25;;;17.90;78.70;;;;;;5331000;26;110807;-52
2024/04/10 00:40:09;;;;;;;18.60;10.98;;;18.00;78.60;;;;;;5331181;26;110461;-52
2024/04/10 00:42:35;;;;;;;22.45;10.70;;;17.90;78.50;;;;;;5330167;26;112575;-52
2024/04/10 00:45:01;;;;;;;14.65;9.35;;;18.00;78.40;;;;;;5326028;26;111667;-52
2024/04/10 00:47:27;;;;;;;19.98;9.70;;;18.00;78.40;;;;;;5332185;26;110519;-52
2024/04/10 00:49:53;;;;;;;17.48;8.90;;;18.10;77.80;;;;;;5331958;26;110887;-52
2024/04/10 00:52:19;;;;;;;15.40;8.98;;;18.00;77.90;;;;;;5330900;26;111086;-52
2024/04/10 00:54:46;;;;;;;18.30;8.70;;;18.00;78.10;;;;;;5330899;26;112327;-52
2024/04/10 00:57:12;;;;;;;13.07;7.47;;;18.00;78.10;;;;;;5332255;26;110787;-52
2024/04/10 00:59:38;;;;;;;19.33;8.88;;;18.00;78.30;;;;;;5332654;26;110534;-51
2024/04/10 01:02:06;;;;;;;17.83;8.05;;;18.00;78.20;;;;;;5330407;26;111081;-52
2024/04/10 01:04:32;;;;;;;15.77;7.82;;;18.10;78.30;;;;;;5330780;26;110906;-51
2024/04/10 01:06:58;;;;;;;13.77;7.32;;;18.10;78.30;;;;;;5331639;26;110494;-51
2024/04/10 01:09:24;;;;;;;13.45;6.63;;;18.10;78.30;;;;;;5331513;26;110894;-52
2024/04/10 01:11:49;;;;;;;10.77;6.35;;;18.10;78.40;;;;;;5330622;26;111049;-52
2024/04/10 01:14:16;;;;;;;19.40;6.65;;;18.00;78.70;;;;;;5330735;26;110738;-52
2024/04/10 01:16:42;;;;;;;14.55;6.15;;;18.00;78.90;;;;;;5331612;26;111051;-52
2024/04/10 01:19:08;;;;;;;18.05;6.65;;;18.00;78.60;;;;;;5331633;26;110617;-52
2024/04/10 01:21:34;;;;;;;17.25;6.03;;;18.00;78.50;;;;;;5330370;26;112309;-51
2024/04/10 01:24:00;;;;;;;12.93;5.70;;;17.90;78.50;;;;;;5328628;26;114012;-51
2024/04/10 01:26:26;;;;;;;17.42;5.88;;;18.00;78.40;;;;;;5331637;26;110951;-51
2024/04/10 01:28:51;;;;;;;13.60;5.65;;;17.90;78.70;;;;;;5331473;26;110493;-51
2024/04/10 01:31:17;;;;;;;16.92;5.68;;;17.90;78.60;;;;;;5330449;26;111452;-51
2024/04/10 01:33:43;;;;;;;12.93;5.40;;;17.90;78.40;;;;;;5329737;26;111053;-52
2024/04/10 01:36:08;;;;;;;14.45;5.65;;;18.00;78.30;;;;;;5331364;26;110447;-51
2024/04/10 01:38:35;;;;;;;15.90;5.80;;;17.90;78.40;;;;;;5331347;26;110465;-51
2024/04/10 01:41:01;;;;;;;14.40;5.65;;;17.90;78.30;;;;;;5330361;26;110749;-51
2024/04/10 01:43:26;;;;;;;13.65;5.68;;;18.00;78.00;;;;;;5330052;26;111857;-51
2024/04/10 01:45:52;;;;;;;10.65;5.35;;;18.00;77.70;;;;;;5331372;26;110584;-52
2024/04/10 01:48:18;;;;;;;15.57;5.70;;;17.90;77.60;;;;;;5331412;26;110682;-52
2024/04/10 01:50:44;;;;;;;16.17;5.78;;;17.90;77.40;;;;;;5330082;26;111669;-51
2024/04/10 01:53:10;;;;;;;17.38;5.72;;;17.90;77.40;;;;;;5330114;26;110846;-52
2024/04/10 01:55:36;;;;;;;13.18;5.47;;;17.90;77.50;;;;;;5332051;26;110486;-52
2024/04/10 01:58:02;;;;;;;10.05;5.20;;;17.70;78.30;;;;;;5334241;26;110811;-51
2024/04/10 02:00:28;;;;;;;11.43;5.60;;;17.80;78.20;;;;;;5332613;26;112355;-51
2024/04/10 02:02:54;;;;;;;14.27;5.00;;;17.60;78.30;;;;;;5334211;26;111557;-52
2024/04/10 02:05:19;;;;;;;9.88;5.15;;;17.70;77.90;;;;;;5329384;26;110786;-51
2024/04/10 02:07:45;;;;;;;13.70;5.82;;;17.80;77.20;;;;;;5321546;26;110776;-51
2024/04/10 02:10:11;;;;;;;12.13;5.50;;;17.70;76.50;;;;;;5326038;26;112366;-51
2024/04/10 02:12:36;;;;;;;15.23;5.55;;;17.80;76.10;;;;;;5326760;26;111467;-51
2024/04/10 02:15:03;;;;;;;14.10;4.70;;;17.80;75.50;;;;;;5332366;26;110674;-51
2024/04/10 02:17:29;;;;;;;13.32;5.60;;;17.80;75.20;;;;;;5330276;26;110868;-52
2024/04/10 02:19:54;;;;;;;12.30;5.03;;;17.70;75.10;;;;;;5331351;26;112302;-51
2024/04/10 02:22:20;;;;;;;7.78;4.60;;;17.70;75.00;;;;;;5329148;26;111675;-51
2024/04/10 02:24:46;;;;;;;11.05;4.28;;;17.60;74.80;;;;;;5331477;26;110437;-51
2024/04/10 02:27:11;;;;;;;11.07;4.20;;;17.70;74.50;;;;;;5328707;26;110602;-51
2024/04/10 02:29:37;;;;;;;7.30;4.30;;;17.60;74.90;;;;;;5337236;26;112847;-51
2024/04/10 02:32:04;;;;;;;7.13;4.30;;;17.70;75.00;;;;;;5348750;26;112055;-52
2024/04/10 02:34:29;;;;;;;11.35;4.45;;;17.70;74.90;;;;;;5351343;26;110419;-51
2024/04/10 02:36:55;;;;;;;7.35;4.20;;;17.70;74.60;;;;;;5358646;26;111034;-52
2024/04/10 02:39:21;;;;;;;11.70;4.40;;;17.70;74.30;;;;;;5366673;26;112931;-52
2024/04/10 02:41:47;;;;;;;13.15;4.05;;;17.70;73.80;;;;;;5366449;26;110477;-51
2024/04/10 02:44:12;;;;;;;8.82;4.00;;;17.80;73.60;;;;;;5341975;26;110815;-51
2024/04/10 02:46:38;;;;;;;10.45;4.57;;;17.70;73.70;;;;;;5367273;26;111296;-51
2024/04/10 02:49:04;;;;;;;6.50;3.80;;;17.70;73.70;;;;;;5366130;26;112611;-51
2024/04/10 02:51:29;;;;;;;7.70;3.90;;;17.60;73.80;;;;;;5366370;26;111841;-51
2024/04/10 02:53:55;;;;;;;6.65;3.95;;;17.60;74.20;;;;;;5367095;26;110803;-52
2024/04/10 02:56:21;;;;;;;7.55;4.05;;;17.60;73.80;;;;;;5354863;26;110687;-52
2024/04/10 02:58:47;;;;;;;7.45;3.15;;;17.70;73.40;;;;;;5331131;26;111639;-52
2024/04/10 03:01:12;;;;;;;8.50;3.75;;;17.60;72.70;;;;;;5337698;26;110505;-52
2024/04/10 03:03:38;;;;;;;7.97;3.60;;;17.60;72.60;;;;;;5367362;26;110699;-52
2024/04/10 03:06:08;;;;;;;11.35;3.90;;;17.60;72.70;;;;;;5366955;26;110551;-52
2024/04/10 03:08:35;;;;;;;6.32;3.88;;;17.50;72.60;;;;;;5365399;26;111058;-52
2024/04/10 03:11:02;;;;;;;6.95;3.58;;;17.70;72.20;;;;;;5365770;26;110742;-52
2024/04/10 03:13:28;;;;;;;5.75;3.60;;;17.60;71.30;;;;;;5367015;26;110505;-52
2024/04/10 03:15:54;;;;;;;8.07;3.60;;;17.70;71.10;;;;;;5367312;26;110694;-52
2024/04/10 03:18:20;;;;;;;8.32;3.83;;;17.60;70.90;;;;;;5365876;26;112823;-52
2024/04/10 03:20:46;;;;;;;7.55;3.65;;;17.60;71.40;;;;;;5366025;26;110678;-52
2024/04/10 03:23:12;;;;;;;6.70;3.90;;;17.60;71.70;;;;;;5367024;26;111495;-52
2024/04/10 03:25:38;;;;;;;7.25;4.30;;;17.50;72.40;;;;;;5367094;26;110403;-52
2024/04/10 03:28:05;;;;;;;6.78;3.95;;;17.50;72.60;;;;;;5366024;26;111198;-52
2024/04/10 03:30:32;;;;;;;11.65;4.47;;;17.50;72.10;;;;;;5364085;26;112628;-51
2024/04/10 03:32:58;;;;;;;10.27;4.07;;;17.40;72.60;;;;;;5366817;26;110663;-51
2024/04/10 03:35:24;;;;;;;8.45;4.07;;;17.40;72.80;;;;;;5341489;26;110812;-52
2024/04/10 03:37:50;;;;;;;10.88;4.35;;;17.40;73.00;;;;;;5365835;26;112388;-52
2024/04/10 03:40:16;;;;;;;7.97;3.88;;;17.50;72.60;;;;;;5365700;26;111858;-52
2024/04/10 03:42:43;;;;;;;8.23;4.03;;;17.50;72.90;;;;;;5366769;26;110534;-51
2024/04/10 03:45:12;;;;;;;5.65;4.50;;;17.60;72.60;;;;;;5366603;26;110549;-52
2024/04/10 03:47:38;;;;;;;9.05;6.10;;;17.20;73.20;;;;;;5365858;26;111061;-52
2024/04/10 03:50:05;;;;;;;10.27;5.93;;;17.10;74.10;;;;;;5365818;26;110709;-52
2024/04/10 03:52:31;;;;;;;10.77;5.30;;;17.20;73.70;;;;;;5366784;26;110570;-52
2024/04/10 03:54:57;;;;;;;7.65;5.10;;;17.40;72.80;;;;;;5366771;26;110546;-52
2024/04/10 03:57:22;;;;;;;8.80;5.15;;;17.40;72.70;;;;;;5365432;26;111600;-52
2024/04/10 03:59:48;;;;;;;9.23;4.97;;;17.30;73.10;;;;;;5366062;26;111247;-51
2024/04/10 04:02:14;;;;;;;12.90;5.45;;;17.30;73.90;;;;;;5366355;26;111012;-52
2024/04/10 04:04:39;;;;;;;9.40;5.10;;;17.40;73.70;;;;;;5366830;26;110648;-52
2024/04/10 04:07:05;;;;;;;6.60;5.05;;;17.40;74.80;;;;;;5365412;26;111056;-51
2024/04/10 04:09:31;;;;;;;8.73;5.88;;;17.40;75.70;;;;;;5365398;26;110610;-51
2024/04/10 04:11:57;;;;;;;8.85;5.25;;;17.40;76.20;;;;;;5366575;26;110604;-53
2024/04/10 04:14:23;;;;;;;11.60;5.10;;;17.30;75.80;;;;;;5366457;26;110800;-51
2024/04/10 04:16:49;;;;;;;9.60;5.25;;;17.10;75.80;;;;;;5365732;26;112410;-52
2024/04/10 04:19:15;;;;;;;8.18;5.00;;;17.20;75.80;;;;;;5365104;26;110833;-52
2024/04/10 04:21:41;;;;;;;8.68;5.43;;;17.20;76.50;;;;;;5366392;26;110810;-51
2024/04/10 04:24:06;;;;;;;12.15;7.28;;;17.20;77.00;;;;;;5366457;26;110645;-51
2024/04/10 04:26:32;;;;;;;10.52;6.97;;;17.20;77.40;;;;;;5365049;26;112378;-51
2024/04/10 04:28:58;;;;;;;12.38;5.95;;;17.20;76.90;;;;;;5365413;26;111685;-52
2024/04/10 04:31:24;;;;;;;12.02;6.55;;;17.10;77.00;;;;;;5366100;26;110741;-51
2024/04/10 04:33:50;;;;;;;8.60;6.50;;;17.10;76.80;;;;;;5356427;26;110823;-51
2024/04/10 04:36:15;;;;;;;10.30;6.40;;;17.10;77.20;;;;;;5350723;26;111129;-51
2024/04/10 04:38:41;;;;;;;10.57;6.57;;;17.10;77.50;;;;;;5364942;26;110548;-53
2024/04/10 04:41:07;;;;;;;9.73;6.18;;;17.10;77.20;;;;;;5366478;26;110541;-51
2024/04/10 04:43:33;;;;;;;12.80;6.72;;;17.10;77.20;;;;;;5366377;26;110634;-51
2024/04/10 04:46:00;;;;;;;9.73;6.57;;;17.20;77.10;;;;;;5365248;26;111218;-52
2024/04/10 04:48:26;;;;;;;11.10;6.28;;;17.20;76.80;;;;;;5365168;26;110725;-52
2024/04/10 04:50:53;;;;;;;11.55;6.28;;;17.30;76.80;;;;;;5365963;26;110486;-52
2024/04/10 04:53:19;;;;;;;10.02;6.50;;;17.20;76.60;;;;;;5366190;26;110555;-51
2024/04/10 04:55:45;;;;;;;10.90;6.82;;;17.30;77.30;;;;;;5364731;26;111897;-51
2024/04/10 04:58:13;;;;;;;10.65;6.90;;;17.20;78.20;;;;;;5365618;26;110869;-52
2024/04/10 05:00:40;;;;;;;12.80;7.50;;;17.20;77.90;;;;;;5365855;26;110950;-51
2024/04/10 05:03:09;;;;;;;12.98;8.30;;;17.20;77.70;;;;;;5366144;26;110612;-51
2024/04/10 05:05:36;;;;;;;9.15;7.45;;;17.00;78.50;;;;;;5364924;26;111597;-51
2024/04/10 05:08:02;;;;;;;12.50;7.32;;;17.10;78.40;;;;;;5364940;26;110467;-51
2024/04/10 05:10:28;;;;;;;11.75;7.40;;;17.10;79.00;;;;;;5365808;26;110508;-51
2024/04/10 05:12:54;;;;;;;9.30;7.28;;;17.20;78.70;;;;;;5365665;26;110695;-51
2024/04/10 05:15:20;;;;;;;8.10;7.30;;;17.10;79.10;;;;;;5364919;26;111085;-52
2024/04/10 05:17:49;;;;;;;11.52;8.10;;;17.10;79.00;;;;;;5364753;26;110823;-51
2024/04/10 05:20:15;;;;;;;18.15;8.52;;;17.10;79.20;;;;;;5365773;26;110708;-51
2024/04/10 05:22:42;;;;;;;9.52;8.52;;;17.10;79.10;;;;;;5365750;26;110849;-51
2024/04/10 05:25:09;;;;;;;10.23;8.60;;;17.10;78.90;;;;;;5364574;26;111044;-51
2024/04/10 05:27:38;;;;;;;11.32;8.07;;;17.10;78.70;;;;;;5364465;26;110317;-51
2024/04/10 05:30:09;;;;;;;13.88;7.93;;;17.20;78.40;;;;;;5364491;26;110405;-51
2024/04/10 05:32:36;;;;;;;11.20;7.80;;;17.30;78.40;;;;;;5365862;26;110999;-51
2024/04/10 05:35:06;;;;;;;13.68;8.75;;;17.10;78.20;;;;;;5339192;26;111302;-51
2024/04/10 05:37:32;;;;;;;14.18;8.80;;;16.90;79.00;;;;;;5364288;26;110635;-51
2024/04/10 05:40:10;;;;;;;11.43;8.82;;;17.00;79.40;;;;;;5363493;26;110746;-51
2024/04/10 05:42:36;;;;;;;10.27;8.48;;;17.10;78.10;;;;;;5365668;26;110337;-51
2024/04/10 05:45:04;;;;;;;11.85;8.55;;;17.20;78.20;;;;;;5364296;26;111119;-52
2024/04/10 05:47:33;;;;;;;11.30;8.88;;;17.40;77.80;;;;;;5364173;26;110377;-51
2024/04/10 05:49:59;;;;;;;16.42;9.57;;;17.20;77.70;;;;;;5365075;26;110493;-51
2024/04/10 05:52:25;;;;;;;13.10;8.65;;;17.20;78.90;;;;;;5365272;26;110550;-51
2024/04/10 05:54:52;;;;;;;12.27;8.75;;;17.30;79.00;;;;;;5364275;26;112562;-51
2024/04/10 05:57:18;;;;;;;13.45;9.73;;;17.30;78.80;;;;;;5364042;26;110505;-51
2024/04/10 05:59:44;;;;;;;12.38;9.77;;;17.30;79.00;;;;;;5365608;26;110460;-52
2024/04/10 06:02:09;;;;;;;14.00;9.73;;;17.40;78.50;;;;;;5364804;26;110619;-51
2024/04/10 06:04:36;;;;;;;16.20;9.50;;;17.50;78.90;;;;;;5363853;26;112402;-51
2024/04/10 06:07:02;;;;;;;11.40;9.27;;;17.60;78.30;;;;;;5363782;26;111617;-51
2024/04/10 06:09:28;;;;;;;12.93;9.70;;;17.60;77.60;;;;;;5364526;26;110547;-51
2024/04/10 06:11:54;;;;;;;13.85;10.05;;;17.50;78.70;;;;;;5364907;26;110623;-51
2024/04/10 06:14:20;;;;;;;15.15;9.32;;;17.50;78.70;;;;;;5362628;26;112337;-51
2024/04/10 06:16:46;;;;;;;12.95;9.50;;;17.70;78.10;;;;;;5363672;26;111459;-51
2024/04/10 06:19:12;;;;;;;13.25;9.50;;;17.60;78.20;;;;;;5364449;26;110706;-51
2024/04/10 06:21:38;;;;;;;11.57;9.55;;;17.60;78.40;;;;;;5364756;26;110848;-51
2024/04/10 06:24:05;;;;;;;12.98;9.20;;;17.60;78.20;;;;;;5361686;26;112428;-52
2024/04/10 06:26:31;;;;;;;14.43;9.68;;;17.80;77.20;;;;;;5363012;26;111616;-51
2024/04/10 06:28:56;;;;;;;12.13;9.38;;;17.80;77.30;;;;;;5364252;26;110626;-51
2024/04/10 06:31:22;;;;;;;14.13;10.00;;;17.90;76.60;;;;;;5364353;26;110621;-51
2024/04/10 06:33:48;;;;;;;16.15;9.35;;;17.90;76.40;;;;;;5350850;26;112461;-51
2024/04/10 06:36:14;;;;;;;13.23;9.32;;;17.90;76.40;;;;;;5348102;26;112243;-51
2024/04/10 06:38:40;;;;;;;13.63;9.52;;;17.90;76.20;;;;;;5360190;26;112262;-51
2024/04/10 06:41:06;;;;;;;13.55;9.43;;;18.00;75.80;;;;;;5362616;26;110556;-51
2024/04/10 06:43:32;;;;;;;12.40;9.90;;;18.00;75.70;;;;;;5361215;26;111117;-50
2024/04/10 06:46:03;;;;;;;15.77;9.75;;;18.00;75.60;;;;;;5332752;26;111630;-51
2024/04/10 06:48:29;;;;;;;14.30;9.43;;;18.00;75.80;;;;;;5339781;26;110515;-51
2024/04/10 06:50:58;;;;;;;15.95;9.45;;;18.00;75.60;;;;;;5338059;26;110745;-51
2024/04/10 06:53:24;;;;;;;15.77;10.52;;;18.00;75.40;;;;;;5345342;26;112742;-51
2024/04/10 06:55:55;;;;;;;13.18;9.57;;;17.80;76.10;;;;;;5341417;26;110773;-53
2024/04/10 06:58:21;;;;;;;14.27;10.20;;;17.90;76.10;;;;;;5350256;26;110449;-52
2024/04/10 07:01:07;;;;;;;16.20;10.23;;;17.90;75.60;;;;;;5333433;26;110688;-52
2024/04/10 07:03:34;;;;;;;16.33;10.25;;;17.90;75.40;;;;;;5329987;26;112490;-53
2024/04/10 07:06:07;;;;;;;13.90;10.07;;;17.80;76.00;;;;;;5329789;26;110861;-53
2024/04/10 07:08:33;;;;;;;13.32;10.20;;;17.80;75.80;;;;;;5331089;26;110483;-52
2024/04/10 07:10:59;;;;;;;14.25;9.32;;;17.80;75.50;;;;;;5330877;26;110918;-52
2024/04/10 07:13:25;;;;;;;13.75;9.20;;;17.80;75.60;;;;;;5329882;26;112003;-53
2024/04/10 07:15:59;;;;;;;13.75;9.27;;;17.90;75.00;;;;;;5340180;26;111638;-52
2024/04/10 07:18:26;;;;;;;15.35;9.45;;;17.90;75.00;;;;;;5327980;26;110781;-53
2024/04/10 07:21:03;;;;;;;14.23;9.35;;;18.00;75.10;;;;;;5330661;26;110550;-53
2024/04/10 07:23:30;;;;;;;18.65;10.38;;;18.10;75.00;;;;;;5329585;26;112541;-52
2024/04/10 07:26:08;;;;;;;12.10;9.57;;;18.00;75.70;;;;;;5328646;26;111730;-53
2024/04/10 07:28:34;;;;;;;14.35;9.27;;;18.10;76.00;;;;;;5330632;26;110472;-53
2024/04/10 07:30:59;;;;;;;16.90;9.52;;;18.10;76.10;;;;;;5330876;26;110825;-52
2024/04/10 07:33:26;;;;;;;15.57;9.35;;;18.10;75.90;;;;;;5329780;26;111376;-53
2024/04/10 07:35:51;;;;;;;14.10;9.30;;;18.20;76.20;;;;;;5344582;26;110826;-53
2024/04/10 07:38:17;;;;;;;13.90;8.48;;;18.20;75.40;;;;;;5365967;26;111021;-52
2024/04/10 07:40:53;;;;;;;16.85;8.88;;;18.20;74.70;;;;;;5366165;26;110649;-53
2024/04/10 07:43:19;;;;;;;13.25;8.18;;;18.20;74.90;;;;;;5365052;26;111205;-53
2024/04/10 07:45:44;;;;;;;12.63;8.68;;;18.20;74.80;;;;;;5364845;26;110932;-52
2024/04/10 07:48:10;;;;;;;14.90;8.77;;;18.30;74.10;;;;;;5366067;26;110763;-52
2024/04/10 07:50:36;;;;;;;11.48;7.82;;;18.40;73.90;;;;;;5366185;26;110869;-52
2024/04/10 07:53:01;;;;;;;15.85;8.30;;;18.30;73.50;;;;;;5364240;26;112961;-52
2024/04/10 07:55:27;;;;;;;15.35;7.72;;;18.40;73.50;;;;;;5364834;26;111943;-53
2024/04/10 07:57:53;;;;;;;10.20;7.05;;;18.40;72.70;;;;;;5366158;26;110882;-52
2024/04/10 08:00:18;;;;;;;11.98;7.38;;;18.40;72.50;;;;;;5364893;26;110920;-52
2024/04/10 08:02:44;;;;;;;11.73;7.18;;;18.40;72.60;;;;;;5364709;26;111452;-52
2024/04/10 08:05:10;;;;;;;11.00;7.38;;;18.30;73.20;;;;;;5364744;26;110535;-52
2024/04/10 08:07:39;;;;;;;12.80;7.32;;;18.40;73.20;;;;;;5365775;26;111305;-52
2024/04/10 08:10:05;;;;;;;12.85;7.13;;;18.40;73.00;;;;;;5366199;26;110834;-52
2024/04/10 08:12:30;;;;;;;11.23;7.20;;;18.50;72.90;;;;;;5364821;26;113371;-53
2024/04/10 08:14:56;;;;;;;10.43;7.00;;;18.50;72.70;;;;;;5364768;26;110681;-52
2024/04/10 08:17:22;;;;;;;20.10;7.13;;;18.60;72.30;;;;;;5365673;26;110455;-52
2024/04/10 08:19:48;;;;;;;13.88;6.95;;;18.60;72.20;;;;;;5366061;26;110602;-52
2024/04/10 08:22:14;;;;;;;12.63;6.80;;;18.60;71.90;;;;;;5364980;26;111615;-52
2024/04/10 08:24:40;;;;;;;14.50;7.45;;;18.60;71.90;;;;;;5364622;26;111879;-52
2024/04/10 08:27:06;;;;;;;12.80;6.60;;;18.60;71.30;;;;;;5365487;26;110864;-52
2024/04/10 08:29:31;;;;;;;11.50;6.60;;;18.60;71.30;;;;;;5365447;26;110818;-52
2024/04/10 08:31:58;;;;;;;9.75;5.97;;;18.50;72.00;;;;;;5364639;26;111204;-52
2024/04/10 08:34:25;;;;;;;9.50;6.47;;;18.70;71.80;;;;;;5346194;26;110552;-52
2024/04/10 08:36:50;;;;;;;9.55;6.00;;;18.80;71.30;;;;;;5359070;26;110653;-52
2024/04/10 08:39:19;;;;;;;11.85;6.25;;;18.90;70.60;;;;;;5366000;26;111267;-52
2024/04/10 08:41:44;;;;;;;10.73;5.57;;;19.00;70.00;;;;;;5364412;26;112426;-52
2024/04/10 08:44:11;;;;;;;13.60;5.80;;;19.20;69.60;;;;;;5364713;26;110887;-52
2024/04/10 08:46:39;;;;;;;9.00;5.90;;;19.30;69.10;;;;;;5365687;26;110941;-52
2024/04/10 08:49:06;;;;;;;13.25;6.63;;;19.30;69.20;;;;;;5365441;26;110523;-52
2024/04/10 08:51:33;;;;;;;8.93;6.47;;;19.40;69.90;;;;;;5364312;26;112351;-53
2024/04/10 08:53:59;;;;;;;8.85;6.13;;;19.30;70.60;;;;;;5363845;26;110441;-52
2024/04/10 08:56:25;;;;;;;10.98;6.05;;;19.40;70.90;;;;;;5365352;26;110480;-52
2024/04/10 08:58:53;;;;;;;7.47;5.57;;;19.30;70.50;;;;;;5363995;26;110646;-53
2024/04/10 09:01:41;;;;;;;10.40;5.57;;;19.40;70.70;;;;;;5364251;26;112389;-52
2024/04/10 09:04:11;;;;;;;12.02;6.00;;;19.50;70.40;;;;;;5363456;26;111606;-53
2024/04/10 09:06:37;;;;;;;10.75;5.65;;;19.50;70.30;;;;;;5364081;26;110595;-53
2024/04/10 09:09:06;;;;;;;10.95;5.47;;;19.60;70.40;;;;;;5365433;26;110751;-52
2024/04/10 09:11:33;;;;;;;10.52;5.32;;;19.70;70.10;;;;;;5364391;26;111049;-53
2024/04/10 09:14:17;;;;;;;9.07;6.07;;;19.70;69.60;;;;;;5363880;26;111457;-52
2024/04/10 09:16:43;;;;;;;8.73;5.43;;;19.80;69.00;;;;;;5365411;26;111186;-52
2024/04/10 09:19:11;;;;;;;9.30;5.47;;;19.70;68.60;;;;;;5364849;26;110565;-52
2024/04/10 09:21:38;;;;;;;11.13;5.38;;;19.60;68.40;;;;;;5363693;26;111414;-53
2024/04/10 09:24:04;;;;;;;8.75;5.35;;;19.40;68.60;;;;;;5362142;26;111633;-52
2024/04/10 09:27:42;;;;;;;7.95;5.15;;;19.40;69.40;;;;;;5315815;26;110448;-52
2024/04/10 09:30:09;;;;;;;10.00;5.85;;;19.30;70.20;;;;;;5313903;26;110330;-52
2024/04/10 09:32:36;;;;;;;15.88;6.25;;;19.30;70.60;;;;;;5313647;26;110421;-52
2024/04/10 09:35:05;;;;;;;10.50;5.63;;;19.20;70.00;;;;;;5287426;26;113131;-52
2024/04/10 09:37:32;;;;;;;10.23;6.57;;;19.20;70.10;;;;;;5312700;26;111563;-52
2024/04/10 09:39:58;;;;;;;14.13;6.07;;;19.20;70.60;;;;;;5313435;26;111250;-52
2024/04/10 09:42:27;;;;;;;9.60;5.97;;;19.30;70.20;;;;;;5313734;26;110784;-52
2024/04/10 09:45:06;;;;;;;8.27;5.28;;;19.30;70.20;;;;;;5312307;26;112950;-52
2024/04/10 09:47:32;;;;;;;11.30;6.35;;;19.20;70.60;;;;;;5312448;26;110606;-52
2024/04/10 09:50:00;;;;;;;13.00;6.45;;;19.20;71.10;;;;;;5313503;26;110433;-52
2024/04/10 09:52:28;;;;;;;9.30;6.50;;;19.20;70.90;;;;;;5313310;26;110848;-53
2024/04/10 09:54:56;;;;;;;18.67;6.90;;;19.20;71.30;;;;;;5312461;26;111615;-52
2024/04/10 09:57:24;;;;;;;10.63;7.18;;;19.20;73.10;;;;;;5312248;26;111880;-52
2024/04/10 09:59:49;;;;;;;9.60;6.88;;;19.10;74.10;;;;;;5314015;26;110441;-52
2024/04/10 10:02:17;;;;;;;14.63;6.75;;;19.00;75.10;;;;;;5313104;26;110676;-52
2024/04/10 10:04:42;;;;;;;10.48;6.88;;;19.00;75.70;;;;;;5312132;26;111065;-52
2024/04/10 10:07:09;;;;;;;12.98;6.95;;;18.90;75.20;;;;;;5312093;26;110760;-52
2024/04/10 10:09:35;;;;;;;10.30;7.43;;;18.80;74.70;;;;;;5313586;26;110411;-52
2024/04/10 10:12:01;;;;;;;18.30;9.10;;;18.60;76.50;;;;;;5313461;26;110592;-52
2024/04/10 10:14:28;;;;;;;13.00;8.38;;;18.60;76.50;;;;;;5311926;26;111709;-52
2024/04/10 10:17:07;;;;;;;11.13;7.72;;;18.60;78.00;;;;;;5312131;26;111027;-52
2024/04/10 10:19:35;;;;;;;9.68;7.68;;;18.70;77.00;;;;;;5313064;26;112440;-52
2024/04/10 10:22:01;;;;;;;13.55;7.63;;;18.70;76.60;;;;;;5313413;26;111049;-52
2024/04/10 10:24:29;;;;;;;11.27;7.78;;;18.80;76.80;;;;;;5311638;26;112393;-51
2024/04/10 10:27:01;;;;;;;12.40;7.78;;;18.70;76.80;;;;;;5311702;26;111613;-52
2024/04/10 10:29:30;;;;;;;11.57;8.35;;;18.80;77.20;;;;;;5312999;26;110475;-52
2024/04/10 10:32:07;;;;;;;13.57;8.50;;;18.90;77.90;;;;;;5311331;26;110737;-52
2024/04/10 10:34:33;;;;;;;16.77;8.25;;;19.20;76.10;;;;;;5291676;26;112410;-52
2024/04/10 10:37:04;;;;;;;15.43;9.30;;;19.40;76.80;;;;;;5304500;26;110371;-52
2024/04/10 10:39:30;;;;;;;15.93;11.57;;;19.50;78.10;;;;;;5297992;26;110597;-52
2024/04/10 10:42:06;;;;;;;15.77;11.68;;;19.60;77.30;;;;;;5296504;26;110751;-52
2024/04/10 10:44:32;;;;;;;17.15;10.57;;;19.80;77.70;;;;;;5295450;26;112404;-52
2024/04/10 10:46:58;;;;;;;10.95;8.32;;;19.90;77.40;;;;;;5295123;26;111385;-52
2024/04/10 10:49:26;;;;;;;11.77;7.53;;;19.80;77.00;;;;;;5298018;26;110789;-53
2024/04/10 10:51:55;;;;;;;13.30;8.15;;;19.80;76.50;;;;;;5298027;26;110575;-53
2024/04/10 10:54:21;;;;;;;11.88;7.75;;;19.90;76.70;;;;;;5296762;26;111319;-53
2024/04/10 10:56:47;;;;;;;10.35;7.95;;;20.20;76.20;;;;;;5296775;26;111825;-53
2024/04/10 10:59:14;;;;;;;9.10;7.00;;;20.70;74.40;;;;;;5298300;26;110822;-53
2024/04/10 11:01:43;;;;;;;7.10;4.28;;;21.00;71.60;;;;;;5297946;26;110672;-52
2024/04/10 11:04:10;;;;;;;6.75;3.75;;;21.40;67.80;;;;;;5296471;26;111112;-52
2024/04/10 11:06:36;;;;;;;9.35;3.25;;;21.90;63.70;;;;;;5296512;26;112038;-53
2024/04/10 11:09:15;;;;;;;7.78;3.35;;;21.90;60.50;;;;;;5297763;26;110915;-53
2024/04/10 11:11:42;;;;;;;6.40;3.60;;;21.90;60.10;;;;;;5297858;26;110511;-53
2024/04/10 11:14:22;;;;;;;12.15;7.85;;;21.80;59.90;;;;;;5296409;26;112370;-53
2024/04/10 11:16:56;;;;;;;7.38;2.70;;;21.50;60.10;;;;;;5296503;26;111579;-53
2024/04/10 11:19:22;;;;;;;7.95;2.40;;;21.20;58.70;;;;;;5297507;26;111343;-53
2024/04/10 11:21:47;;;;;;;8.27;2.78;;;21.10;58.10;;;;;;5297677;26;110500;-52
2024/04/10 11:24:13;;;;;;;6.43;2.33;;;20.90;58.60;;;;;;5296189;26;112740;-53
2024/04/10 11:26:39;;;;;;;5.53;2.67;;;20.90;58.60;;;;;;5296174;26;111599;-52
2024/04/10 11:29:04;;;;;;;7.43;2.50;;;20.80;59.50;;;;;;5297693;26;110759;-52
2024/04/10 11:31:30;;;;;;;8.13;2.58;;;20.70;58.70;;;;;;5297500;26;110493;-53
2024/04/10 11:33:56;;;;;;;9.27;2.38;;;20.60;59.10;;;;;;5284994;26;112334;-52
2024/04/10 11:36:22;;;;;;;6.28;2.30;;;20.60;58.70;;;;;;5283358;26;110484;-52
2024/04/10 11:38:50;;;;;;;8.02;2.28;;;20.50;58.60;;;;;;5297390;26;110355;-52
2024/04/10 11:41:17;;;;;;;3.95;1.83;;;20.50;59.20;;;;;;5297589;26;110904;-52
2024/04/10 11:43:44;;;;;;;3.90;2.40;;;20.50;59.60;;;;;;5296113;26;111061;-52
2024/04/10 11:46:10;;;;;;;6.97;2.13;;;20.40;59.50;;;;;;5296227;26;111665;-52
2024/04/10 11:48:38;;;;;;;10.38;3.80;;;20.30;59.80;;;;;;5296370;26;110476;-52
2024/04/10 11:51:05;;;;;;;6.25;3.67;;;20.30;59.50;;;;;;5296569;26;110588;-52
2024/04/10 11:53:32;;;;;;;4.38;2.40;;;20.30;58.80;;;;;;5296101;26;111135;-52
2024/04/10 11:55:58;;;;;;;6.93;2.50;;;20.30;59.60;;;;;;5295891;26;111609;-54
2024/04/10 11:58:23;;;;;;;5.25;2.05;;;20.30;59.20;;;;;;5297356;26;110466;-53
2024/04/10 12:00:50;;;;;;;6.45;2.60;;;20.30;58.40;;;;;;5297790;26;111345;-52
2024/04/10 12:03:16;;;;;;;5.82;2.55;;;20.30;58.20;;;;;;5296041;26;111266;-52
2024/04/10 12:05:42;;;;;;;4.22;2.20;;;20.40;57.30;;;;;;5295739;26;110751;-53
2024/04/10 12:08:07;;;;;;;7.85;2.03;;;20.30;57.70;;;;;;5297221;26;110719;-52
2024/04/10 12:10:34;;;;;;;7.20;2.40;;;20.30;58.00;;;;;;5297370;26;111043;-52
2024/04/10 12:12:59;;;;;;;6.07;2.17;;;20.40;58.50;;;;;;5295836;26;111183;-52
2024/04/10 12:15:25;;;;;;;5.75;1.90;;;20.40;60.30;;;;;;5296232;26;111777;-52
2024/04/10 12:17:52;;;;;;;8.32;1.92;;;20.30;60.50;;;;;;5297278;26;110811;-52
2024/04/10 12:20:18;;;;;;;6.60;2.30;;;20.30;62.10;;;;;;5297188;26;110661;-52
2024/04/10 12:22:45;;;;;;;4.75;1.88;;;20.30;63.70;;;;;;5295692;26;111222;-52
2024/04/10 12:25:11;;;;;;;4.88;2.05;;;20.10;62.60;;;;;;5295860;26;110587;-52
2024/04/10 12:27:37;;;;;;;7.60;2.50;;;20.00;62.00;;;;;;5296642;26;110549;-52